| time (UTC) | temp C | wind direction | speed KPH | gust KPH | rain 1hr cm | rain 24hr cm | rain mn cm | humidity % | barometer mb |
| 20260906213324 | 30 | 150 | 9.7 | 17.7 | 0.00 | 0.00 | 0.00 | 29 | 1013.4 |
| 20260906210328 | 31 | 150 | 12.9 | 16.1 | 0.00 | 0.00 | 0.00 | 27 | 1014.1 |
| 20260906203321 | 31 | 172 | 9.7 | 17.7 | 0.00 | 0.00 | 0.00 | 26 | 1014.2 |
| 20260906200317 | 31 | 148 | 8.0 | 22.5 | 0.00 | 0.00 | 0.00 | 24 | 1014.2 |
| 20260906193324 | 31 | 143 | 4.8 | 17.7 | 0.00 | 0.00 | 0.00 | 25 | 1014.6 |
| 20260906190321 | 30 | 128 | 8.0 | 14.5 | 0.00 | 0.00 | 0.00 | 25 | 1015.0 |
| 20260906183328 | 29 | 181 | 6.4 | 9.7 | 0.00 | 0.00 | 0.00 | 29 | 1015.8 |
| 20260906180319 | 28 | 74 | 8.0 | 12.9 | 0.00 | 0.00 | 0.00 | 36 | 1016.2 |
| 20260906173348 | 27 | 24 | 3.2 | 12.9 | 0.00 | 0.00 | 0.00 | 39 | 1016.6 |
| 20260906170332 | 25 | 163 | 6.4 | 12.9 | 0.00 | 0.00 | 0.00 | 44 | 1017.1 |
| 20260906163320 | 26 | 182 | 3.2 | 6.4 | 0.00 | 0.00 | 0.00 | 39 | 1017.2 |
| 20260906160354 | 23 | 178 | 0.0 | 4.8 | 0.00 | 0.00 | 0.00 | 47 | 1017.2 |
| 20260906153328 | 22 | 142 | 0.0 | 6.4 | 0.00 | 0.00 | 0.00 | 51 | 1017.3 |
| 20260906150323 | 19 | 80 | 0.0 | 8.0 | 0.00 | 0.00 | 0.00 | 55 | 1017.5 |
| 20260906143321 | 18 | 123 | 4.8 | 11.3 | 0.00 | 0.00 | 0.00 | 56 | 1017.7 |
| 20260906140324 | 18 | 124 | 6.4 | 12.9 | 0.00 | 0.00 | 0.00 | 58 | 1017.6 |
| 20260906133321 | 15 | 317 | 4.8 | 8.0 | 0.00 | 0.00 | 0.00 | 66 | 1017.2 |
| 20260906130346 | 13 | 344 | 4.8 | 9.7 | 0.00 | 0.00 | 0.00 | 69 | 1017.1 |
| 20260906123357 | 12 | 311 | 4.8 | 8.0 | 0.00 | 0.00 | 0.00 | 75 | 1016.9 |
| 20260906120339 | 12 | 276 | 9.7 | 11.3 | 0.00 | 0.00 | 0.00 | 74 | 1016.7 |
| 20260906113335 | 13 | 282 | 6.4 | 9.7 | 0.00 | 0.00 | 0.00 | 67 | 1017.0 |
| 20260906110337 | 13 | 23 | 0.0 | 4.8 | 0.00 | 0.00 | 0.00 | 66 | 1017.0 |
| 20260906103343 | 13 | 253 | 3.2 | 9.7 | 0.00 | 0.00 | 0.00 | 65 | 1016.9 |
| 20260906100345 | 14 | 205 | 6.4 | 8.0 | 0.00 | 0.00 | 0.00 | 59 | 1016.9 |
| 20260906093354 | 16 | 277 | 6.4 | 11.3 | 0.00 | 0.00 | 0.00 | 57 | 1016.6 |
| 20260906090325 | 17 | 277 | 6.4 | 12.9 | 0.00 | 0.00 | 0.00 | 54 | 1016.6 |
| 20260906083331 | 14 | 350 | 1.6 | 4.8 | 0.00 | 0.00 | 0.00 | 66 | 1016.6 |
| 20260906080325 | 15 | 281 | 4.8 | 9.7 | 0.00 | 0.00 | 0.00 | 63 | 1016.6 |
| 20260906073324 | 17 | 227 | 3.2 | 3.2 | 0.00 | 0.00 | 0.00 | 65 | 1016.8 |
| 20260906070325 | 18 | 200 | 4.8 | 4.8 | 0.00 | 0.00 | 0.00 | 65 | 1016.6 |
| 20260906063334 | 18 | 140 | 3.2 | 4.8 | 0.00 | 0.00 | 0.00 | 63 | 1016.6 |
| 20260906060325 | 20 | 122 | 0.0 | 6.4 | 0.00 | 0.00 | 0.00 | 60 | 1016.4 |
| 20260906053331 | 21 | 83 | 9.7 | 12.9 | 0.00 | 0.00 | 0.00 | 56 | 1016.5 |
| 20260906050326 | 20 | 126 | 1.6 | 8.0 | 0.00 | 0.00 | 0.00 | 55 | 1016.6 |
| 20260906043336 | 22 | 101 | 4.8 | 14.5 | 0.00 | 0.00 | 0.00 | 50 | 1016.6 |
| 20260906040329 | 22 | 113 | 11.3 | 16.1 | 0.00 | 0.00 | 0.00 | 49 | 1016.6 |
| 20260906033323 | 23 | 82 | 9.7 | 17.7 | 0.00 | 0.00 | 0.00 | 43 | 1016.7 |
| 20260906030357 | 24 | 34 | 0.0 | 0.0 | 0.00 | 0.00 | 0.00 | 38 | 1016.2 |
| 20260906023319 | 25 | 34 | 0.0 | 0.0 | 0.00 | 0.00 | 0.00 | 35 | 1016.2 |
| 20260906020336 | 26 | 63 | 0.0 | 0.0 | 0.00 | 0.00 | 0.00 | 34 | 1016.0 |
| 20260906013318 | 27 | 107 | 0.0 | 0.0 | 0.00 | 0.00 | 0.00 | 32 | 1016.0 |
| 20260906010327 | 27 | 115 | 0.0 | 0.0 | 0.00 | 0.00 | 0.00 | 34 | 1016.0 |
| 20260906003323 | 30 | 113 | 0.0 | 0.0 | 0.00 | 0.00 | 0.00 | 27 | 1015.9 |
| 20260906000329 | 30 | 119 | 3.2 | 6.4 | 0.00 | 0.00 | 0.00 | 25 | 1015.8 |
| 20260905233400 | 30 | 128 | 9.7 | 14.5 | 0.00 | 0.00 | 0.00 | 25 | 1015.5 |
| 20260905230336 | 31 | 126 | 3.2 | 12.9 | 0.00 | 0.00 | 0.00 | 25 | 1015.5 |
| 20260905223320 | 31 | 88 | 1.6 | 8.0 | 0.00 | 0.00 | 0.00 | 25 | 1015.8 |
| 20260905220328 | 30 | 111 | 6.4 | 16.1 | 0.00 | 0.00 | 0.00 | 25 | 1016.0 |